createdAt,value
2019-02-21T00:02:47.292Z,102227.77
2019-02-21T00:07:36.990Z,102225.56
2019-02-21T00:12:26.658Z,102231.14
2019-02-21T00:17:18.380Z,102230.00
2019-02-21T00:22:10.327Z,102231.27
2019-02-21T00:27:02.247Z,102229.16
2019-02-21T00:31:54.304Z,102236.98
2019-02-21T00:36:44.278Z,102232.16
2019-02-21T00:41:35.139Z,102228.09
2019-02-21T00:46:25.074Z,102231.73
2019-02-21T00:51:14.509Z,102236.50
2019-02-21T00:56:06.615Z,102231.42
2019-02-21T01:00:58.542Z,102239.35
2019-02-21T01:05:50.501Z,102241.56
2019-02-21T01:10:42.610Z,102237.48
2019-02-21T01:15:34.205Z,102247.84
2019-02-21T01:20:26.074Z,102252.41
2019-02-21T01:25:17.998Z,102262.71
2019-02-21T01:30:09.687Z,102261.62
2019-02-21T01:35:01.623Z,102266.27
2019-02-21T01:39:53.304Z,102262.84
2019-02-21T01:44:44.953Z,102266.42
2019-02-21T01:49:37.175Z,102267.12
2019-02-21T01:54:25.717Z,102267.87
2019-02-21T01:59:17.115Z,102275.72
2019-02-21T02:04:07.881Z,102278.37
2019-02-21T02:08:57.670Z,102291.53
2019-02-21T02:13:49.737Z,102285.02
2019-02-21T02:18:38.874Z,102290.08
2019-02-21T02:23:31.943Z,102288.67
2019-02-21T02:28:21.993Z,102285.33
2019-02-21T02:33:13.942Z,102286.80
2019-02-21T02:38:05.814Z,102290.46
2019-02-21T02:42:57.784Z,102292.20
2019-02-21T02:47:50.922Z,102299.54
2019-02-21T02:53:23.241Z,102301.25
2019-02-21T02:58:08.839Z,102295.11
2019-02-21T03:02:58.182Z,102292.69
2019-02-21T03:07:49.976Z,102292.81
2019-02-21T03:12:41.543Z,102289.31
2019-02-21T03:17:33.488Z,102297.67
2019-02-21T03:22:25.455Z,102297.48
2019-02-21T03:27:17.269Z,102298.83
2019-02-21T03:32:09.701Z,102299.47
2019-02-21T03:37:01.751Z,102299.76
2019-02-21T03:41:53.799Z,102301.57
2019-02-21T03:46:45.679Z,102299.91
2019-02-21T03:51:37.205Z,102298.25
2019-02-21T03:56:29.023Z,102292.95
2019-02-21T04:01:21.167Z,102292.34
2019-02-21T04:06:13.259Z,102284.81
2019-02-21T04:11:05.020Z,102281.62
2019-02-21T04:15:56.938Z,102272.08
2019-02-21T04:20:51.091Z,102274.61
2019-02-21T04:25:44.671Z,102272.77
2019-02-21T04:30:37.593Z,102271.40
2019-02-21T04:35:29.794Z,102270.89
2019-02-21T04:40:23.442Z,102263.15
2019-02-21T04:45:15.506Z,102260.98
2019-02-21T04:50:21.199Z,102260.94
2019-02-21T04:55:25.123Z,102262.00
2019-02-21T05:00:14.545Z,102264.53
2019-02-21T05:05:07.166Z,102273.14
2019-02-21T05:10:02.246Z,102266.27
2019-02-21T05:14:53.282Z,102270.66
2019-02-21T05:19:43.373Z,102268.55
2019-02-21T05:24:35.232Z,102273.73
2019-02-21T05:29:24.464Z,102271.75
2019-02-21T05:34:14.057Z,102263.67
2019-02-21T05:39:03.673Z,102254.54
2019-02-21T05:43:53.324Z,102265.40
2019-02-21T05:48:50.981Z,102261.99
2019-02-21T05:53:38.988Z,102271.95
2019-02-21T05:58:29.234Z,102274.14
2019-02-21T06:03:20.737Z,102277.94
2019-02-21T06:08:09.773Z,102280.21
2019-02-21T06:13:02.023Z,102275.38
2019-02-21T06:17:51.827Z,102279.11
2019-02-21T06:22:41.471Z,102289.40
2019-02-21T06:27:34.266Z,102296.20
2019-02-21T06:32:25.797Z,102303.88
2019-02-21T06:37:16.393Z,102308.70
2019-02-21T06:42:05.884Z,102309.74
2019-02-21T06:47:02.983Z,102318.07
2019-02-21T06:51:54.291Z,102324.09
2019-02-21T06:56:44.233Z,102318.75
2019-02-21T07:01:34.002Z,102315.35
2019-02-21T07:06:34.019Z,102323.39
2019-02-21T07:11:21.914Z,102323.78
2019-02-21T07:16:14.367Z,102321.97
2019-02-21T07:21:05.077Z,102320.28
2019-02-21T07:26:13.891Z,102330.08
2019-02-21T07:31:03.551Z,102339.74
2019-02-21T07:36:11.996Z,102329.69
2019-02-21T07:41:10.655Z,102318.55
2019-02-21T07:45:59.695Z,102327.60
2019-02-21T07:50:49.448Z,102342.63
2019-02-21T07:55:47.424Z,102352.69
2019-02-21T08:00:36.320Z,102357.82
2019-02-21T08:05:28.413Z,102359.72
2019-02-21T08:10:34.846Z,102362.58
2019-02-21T08:15:28.324Z,102367.38
2019-02-21T08:20:17.756Z,102368.05
2019-02-21T08:25:20.577Z,102385.07
2019-02-21T08:30:11.732Z,102381.87
2019-02-21T08:35:03.524Z,102388.22
2019-02-21T08:39:54.210Z,102387.86
2019-02-21T08:44:48.312Z,102389.66
2019-02-21T08:49:46.129Z,102390.81
2019-02-21T08:54:35.125Z,102395.64
2019-02-21T08:59:24.209Z,102392.14
2019-02-21T09:04:28.657Z,102394.91
2019-02-21T09:09:18.144Z,102392.86
2019-02-21T09:14:09.938Z,102408.84
2019-02-21T09:19:02.163Z,102404.02
2019-02-21T09:23:53.574Z,102402.66
2019-02-21T09:28:46.242Z,102402.33
2019-02-21T09:33:52.830Z,102403.78
2019-02-21T09:38:58.989Z,102397.89
2019-02-21T09:44:03.837Z,102402.13
2019-02-21T09:49:10.697Z,102406.46
2019-02-21T09:54:19.163Z,102408.33
2019-02-21T09:59:09.665Z,102414.13
2019-02-21T10:03:59.155Z,102433.48
2019-02-21T10:09:06.802Z,102444.25
2019-02-21T10:14:13.165Z,102444.50
2019-02-21T10:19:14.948Z,102448.01
2019-02-21T10:24:18.232Z,102442.09
2019-02-21T10:29:21.949Z,102438.42
2019-02-21T10:34:25.144Z,102439.69
2019-02-21T10:39:28.536Z,102438.26
2019-02-21T10:44:35.380Z,102425.91
2019-02-21T10:49:40.514Z,102411.03
2019-02-21T10:54:46.784Z,102409.98
2019-02-21T10:59:50.543Z,102415.84
2019-02-21T11:04:57.742Z,102412.64
2019-02-21T11:10:00.742Z,102410.22
2019-02-21T11:15:07.844Z,102393.04
2019-02-21T11:20:12.647Z,102397.54
2019-02-21T11:25:17.604Z,102387.64
2019-02-21T11:30:24.635Z,102384.06
2019-02-21T11:35:29.547Z,102388.45
2019-02-21T11:40:34.551Z,102392.17
2019-02-21T11:45:40.894Z,102389.44
2019-02-21T11:50:43.294Z,102393.28
2019-02-21T11:55:33.221Z,102393.25
2019-02-21T12:00:40.387Z,102403.17
2019-02-21T12:05:46.874Z,102396.39
2019-02-21T12:10:52.810Z,102392.19
2019-02-21T12:16:00.789Z,102383.45
2019-02-21T12:21:05.327Z,102387.41
2019-02-21T12:25:54.505Z,102376.66
2019-02-21T12:31:01.221Z,102381.88
2019-02-21T12:36:07.310Z,102374.50
2019-02-21T12:41:11.274Z,102375.37
2019-02-21T12:46:16.004Z,102368.33
2019-02-21T12:51:13.873Z,102352.56
2019-02-21T12:56:17.553Z,102372.92
2019-02-21T13:01:20.902Z,102388.92
2019-02-21T13:06:24.139Z,102387.70
2019-02-21T13:11:13.683Z,102386.45
2019-02-21T13:16:17.842Z,102403.34
2019-02-21T13:21:06.600Z,102405.67
2019-02-21T13:26:11.938Z,102400.70
2019-02-21T13:31:17.389Z,102401.23
2019-02-21T13:36:21.190Z,102410.74
2019-02-21T13:41:26.194Z,102410.09
2019-02-21T13:46:42.425Z,102409.23
2019-02-21T13:51:45.332Z,102405.14
2019-02-21T13:56:48.768Z,102410.87
2019-02-21T14:01:52.498Z,102398.55
2019-02-21T14:06:55.527Z,102399.61
2019-02-21T14:11:59.303Z,102398.44
2019-02-21T14:17:01.781Z,102398.38
2019-02-21T14:22:05.743Z,102395.50
2019-02-21T14:27:10.605Z,102395.05
2019-02-21T14:32:15.295Z,102399.49
2019-02-21T14:37:19.865Z,102409.13
2019-02-21T14:42:08.539Z,102402.84
2019-02-21T14:46:59.613Z,102399.44
2019-02-21T14:52:05.909Z,102398.61
2019-02-21T14:57:10.216Z,102404.20
2019-02-21T15:02:14.420Z,102395.15
2019-02-21T15:07:17.758Z,102390.39
2019-02-21T15:12:21.650Z,102398.39
2019-02-21T15:17:25.885Z,102393.98
2019-02-21T15:22:29.363Z,102391.60
2019-02-21T15:27:31.048Z,102389.31
2019-02-21T15:32:35.342Z,102380.59
2019-02-21T15:37:41.032Z,102389.36
2019-02-21T15:42:45.628Z,102390.55
2019-02-21T15:47:50.410Z,102382.23
2019-02-21T15:52:55.392Z,102391.92
2019-02-21T15:58:06.046Z,102396.70
2019-02-21T16:03:09.905Z,102401.34
2019-02-21T16:08:07.383Z,102406.09
2019-02-21T16:13:16.140Z,102406.95
2019-02-21T16:18:21.032Z,102412.97
2019-02-21T16:23:24.658Z,102418.44
2019-02-21T16:28:28.962Z,102418.79
2019-02-21T16:33:32.831Z,102432.52
2019-02-21T16:38:36.716Z,102438.84
2019-02-21T16:43:34.510Z,102438.70
2019-02-21T16:48:39.998Z,102446.75
2019-02-21T16:53:42.746Z,102460.31
2019-02-21T16:58:49.543Z,102453.48
2019-02-21T17:03:47.630Z,102454.50
2019-02-21T17:08:55.140Z,102461.47
2019-02-21T17:13:58.713Z,102468.55
2019-02-21T17:18:48.898Z,102477.60
2019-02-21T17:23:47.941Z,102485.09
2019-02-21T17:28:53.964Z,102496.73
2019-02-21T17:33:42.325Z,102508.84
2019-02-21T17:38:41.716Z,102512.09
2019-02-21T17:43:49.645Z,102521.72
2019-02-21T17:48:53.327Z,102529.51
2019-02-21T17:53:57.018Z,102542.58
2019-02-21T17:59:02.064Z,102548.14
2019-02-21T18:04:04.964Z,102548.99
2019-02-21T18:09:09.852Z,102553.32
2019-02-21T18:14:08.078Z,102555.56
2019-02-21T18:19:13.176Z,102560.60
2019-02-21T18:24:16.786Z,102559.88
2019-02-21T18:29:06.190Z,102564.23
2019-02-21T18:33:57.039Z,102561.14
2019-02-21T18:38:57.325Z,102564.26
2019-02-21T18:44:01.623Z,102561.85
2019-02-21T18:49:04.949Z,102571.28
2019-02-21T18:54:09.017Z,102570.41
2019-02-21T18:59:12.720Z,102580.65
2019-02-21T19:04:15.492Z,102581.35
2019-02-21T19:09:04.398Z,102574.27
2019-02-21T19:14:10.750Z,102577.08
2019-02-21T19:19:14.784Z,102576.39
2019-02-21T19:24:18.338Z,102578.62
2019-02-21T19:29:21.680Z,102580.01
2019-02-21T19:34:27.194Z,102586.67
2019-02-21T19:39:16.201Z,102591.44
2019-02-21T19:44:21.964Z,102594.27
2019-02-21T19:49:26.235Z,102594.69
2019-02-21T19:54:15.558Z,102611.66
2019-02-21T19:59:21.760Z,102618.52
2019-02-21T20:04:25.774Z,102623.42
2019-02-21T20:09:29.119Z,102645.01
2019-02-21T20:14:27.121Z,102645.80
2019-02-21T20:19:31.732Z,102649.98
2019-02-21T20:24:34.973Z,102653.03
2019-02-21T20:29:38.330Z,102653.52
2019-02-21T20:34:25.191Z,102661.20
2019-02-21T20:39:31.352Z,102674.22
2019-02-21T20:44:36.849Z,102675.08
2019-02-21T20:49:41.280Z,102683.05
2019-02-21T20:54:30.470Z,102696.58
2019-02-21T20:59:36.491Z,102705.30
2019-02-21T21:04:40.289Z,102701.51
2019-02-21T21:09:43.779Z,102705.58
2019-02-21T21:14:32.672Z,102710.37
2019-02-21T21:19:20.866Z,102713.49
2019-02-21T21:24:10.778Z,102722.27
2019-02-21T21:29:02.779Z,102726.97
2019-02-21T21:33:54.931Z,102740.62
2019-02-21T21:38:56.132Z,102752.89
2019-02-21T21:43:53.376Z,102753.00
2019-02-21T21:48:57.834Z,102758.62
2019-02-21T21:53:45.001Z,102756.98
2019-02-21T21:58:34.596Z,102755.55
2019-02-21T22:03:24.286Z,102765.70
2019-02-21T22:08:30.682Z,102757.66
2019-02-21T22:13:18.678Z,102758.65
2019-02-21T22:18:25.977Z,102769.61
2019-02-21T22:23:22.026Z,102766.62
2019-02-21T22:28:22.212Z,102768.55
2019-02-21T22:33:13.018Z,102766.82
2019-02-21T22:38:04.327Z,102772.45
2019-02-21T22:42:55.945Z,102775.28
2019-02-21T22:48:01.614Z,102773.47
2019-02-21T22:52:50.456Z,102782.21
2019-02-21T22:57:42.903Z,102792.41
2019-02-21T23:02:34.661Z,102799.73
2019-02-21T23:07:32.575Z,102804.41
2019-02-21T23:12:20.520Z,102786.16
2019-02-21T23:17:28.772Z,102799.24
2019-02-21T23:22:32.778Z,102803.67
2019-02-21T23:27:34.327Z,102804.53
2019-02-21T23:32:37.821Z,102805.65
2019-02-21T23:37:41.888Z,102803.98
2019-02-21T23:42:30.928Z,102805.25
2019-02-21T23:47:22.313Z,102822.27
2019-02-21T23:52:17.079Z,102827.41
2019-02-21T23:57:08.983Z,102833.00
